sensor_id;sensor_type;location;lat;lon;timestamp;pressure;altitude;pressure_sealevel;temperature;humidity
18527;BME280;9393;42.158;24.748;2023-05-14T00:00:09;100186.75;;;15.76;56.30
18527;BME280;9393;42.158;24.748;2023-05-14T00:03:13;100186.25;;;15.72;56.34
18527;BME280;9393;42.158;24.748;2023-05-14T00:06:17;100186.28;;;15.80;56.28
18527;BME280;9393;42.158;24.748;2023-05-14T00:09:21;100186.69;;;16.01;55.74
18527;BME280;9393;42.158;24.748;2023-05-14T00:12:25;100181.06;;;15.88;56.04
18527;BME280;9393;42.158;24.748;2023-05-14T00:15:31;100181.88;;;15.97;55.85
18527;BME280;9393;42.158;24.748;2023-05-14T00:18:35;100175.47;;;15.91;55.78
18527;BME280;9393;42.158;24.748;2023-05-14T00:21:39;100177.75;;;15.78;56.12
18527;BME280;9393;42.158;24.748;2023-05-14T00:24:43;100178.41;;;15.80;56.20
18527;BME280;9393;42.158;24.748;2023-05-14T00:27:47;100173.75;;;15.66;56.47
18527;BME280;9393;42.158;24.748;2023-05-14T00:30:53;100173.91;;;15.64;56.50
18527;BME280;9393;42.158;24.748;2023-05-14T00:33:57;100175.66;;;15.56;56.40
18527;BME280;9393;42.158;24.748;2023-05-14T00:37:01;100184.09;;;15.68;56.11
18527;BME280;9393;42.158;24.748;2023-05-14T00:40:06;100184.94;;;15.76;55.92
18527;BME280;9393;42.158;24.748;2023-05-14T00:43:12;100178.97;;;15.58;56.36
18527;BME280;9393;42.158;24.748;2023-05-14T00:46:18;100173.38;;;15.53;56.53
18527;BME280;9393;42.158;24.748;2023-05-14T00:49:22;100173.09;;;15.64;56.40
18527;BME280;9393;42.158;24.748;2023-05-14T00:52:27;100157.22;;;15.82;55.85
18527;BME280;9393;42.158;24.748;2023-05-14T00:55:31;100148.97;;;15.69;56.30
18527;BME280;9393;42.158;24.748;2023-05-14T00:58:35;100144.44;;;15.53;56.79
18527;BME280;9393;42.158;24.748;2023-05-14T01:01:41;100139.75;;;15.39;57.26
18527;BME280;9393;42.158;24.748;2023-05-14T01:04:45;100141.09;;;15.43;57.43
18527;BME280;9393;42.158;24.748;2023-05-14T01:07:55;100143.66;;;15.27;58.04
18527;BME280;9393;42.158;24.748;2023-05-14T01:11:10;100143.41;;;15.46;57.69
18527;BME280;9393;42.158;24.748;2023-05-14T01:14:20;100136.91;;;15.58;57.19
18527;BME280;9393;42.158;24.748;2023-05-14T01:17:27;100131.50;;;15.26;57.83
18527;BME280;9393;42.158;24.748;2023-05-14T01:20:32;100124.50;;;15.08;58.30
18527;BME280;9393;42.158;24.748;2023-05-14T01:23:37;100115.53;;;14.85;58.56
18527;BME280;9393;42.158;24.748;2023-05-14T01:26:41;100129.97;;;15.15;58.15
18527;BME280;9393;42.158;24.748;2023-05-14T01:29:50;100131.25;;;15.11;58.03
18527;BME280;9393;42.158;24.748;2023-05-14T01:32:58;100132.34;;;15.00;58.37
18527;BME280;9393;42.158;24.748;2023-05-14T01:36:04;100128.41;;;15.38;57.67
18527;BME280;9393;42.158;24.748;2023-05-14T01:39:11;100127.84;;;15.52;56.99
18527;BME280;9393;42.158;24.748;2023-05-14T01:42:17;100129.81;;;15.50;57.18
18527;BME280;9393;42.158;24.748;2023-05-14T01:45:21;100112.19;;;15.43;57.49
18527;BME280;9393;42.158;24.748;2023-05-14T01:48:25;100110.69;;;15.40;57.63
18527;BME280;9393;42.158;24.748;2023-05-14T01:51:31;100103.44;;;15.34;57.75
18527;BME280;9393;42.158;24.748;2023-05-14T01:54:38;100114.06;;;15.50;57.62
18527;BME280;9393;42.158;24.748;2023-05-14T01:57:41;100110.75;;;15.48;57.80
18527;BME280;9393;42.158;24.748;2023-05-14T02:00:45;100106.56;;;15.04;58.98
18527;BME280;9393;42.158;24.748;2023-05-14T02:03:49;100111.31;;;15.00;58.89
18527;BME280;9393;42.158;24.748;2023-05-14T02:06:53;100107.06;;;14.99;59.42
18527;BME280;9393;42.158;24.748;2023-05-14T02:10:00;100113.53;;;14.87;59.87
18527;BME280;9393;42.158;24.748;2023-05-14T02:13:03;100112.09;;;14.93;59.11
18527;BME280;9393;42.158;24.748;2023-05-14T02:16:08;100126.63;;;14.79;59.57
18527;BME280;9393;42.158;24.748;2023-05-14T02:19:12;100132.25;;;14.84;59.21
18527;BME280;9393;42.158;24.748;2023-05-14T02:22:16;100129.75;;;14.83;59.29
18527;BME280;9393;42.158;24.748;2023-05-14T02:25:21;100126.63;;;14.79;59.50
18527;BME280;9393;42.158;24.748;2023-05-14T02:28:25;100129.09;;;14.81;59.55
18527;BME280;9393;42.158;24.748;2023-05-14T02:31:29;100125.00;;;14.78;59.34
18527;BME280;9393;42.158;24.748;2023-05-14T02:34:33;100119.81;;;14.94;58.95
18527;BME280;9393;42.158;24.748;2023-05-14T02:37:37;100113.59;;;14.95;58.81
18527;BME280;9393;42.158;24.748;2023-05-14T02:40:42;100118.22;;;15.01;58.61
18527;BME280;9393;42.158;24.748;2023-05-14T02:43:46;100112.69;;;14.79;59.18
18527;BME280;9393;42.158;24.748;2023-05-14T02:46:50;100118.09;;;15.03;58.66
18527;BME280;9393;42.158;24.748;2023-05-14T02:49:54;100141.16;;;14.91;59.06
18527;BME280;9393;42.158;24.748;2023-05-14T02:52:58;100152.13;;;15.21;58.40
18527;BME280;9393;42.158;24.748;2023-05-14T02:56:04;100161.47;;;15.15;58.39
18527;BME280;9393;42.158;24.748;2023-05-14T02:59:09;100161.41;;;15.33;57.70
18527;BME280;9393;42.158;24.748;2023-05-14T03:02:13;100161.16;;;15.44;57.56
18527;BME280;9393;42.158;24.748;2023-05-14T03:05:18;100168.41;;;15.16;58.37
18527;BME280;9393;42.158;24.748;2023-05-14T03:08:22;100173.34;;;15.19;58.31
18527;BME280;9393;42.158;24.748;2023-05-14T03:11:27;100181.59;;;14.98;59.05
18527;BME280;9393;42.158;24.748;2023-05-14T03:14:31;100177.97;;;14.99;58.90
18527;BME280;9393;42.158;24.748;2023-05-14T03:17:35;100177.44;;;15.22;58.52
18527;BME280;9393;42.158;24.748;2023-05-14T03:20:39;100172.25;;;15.30;58.68
18527;BME280;9393;42.158;24.748;2023-05-14T03:23:43;100170.97;;;15.34;58.60
18527;BME280;9393;42.158;24.748;2023-05-14T03:26:48;100172.41;;;15.02;59.37
18527;BME280;9393;42.158;24.748;2023-05-14T03:29:52;100173.38;;;14.76;60.48
18527;BME280;9393;42.158;24.748;2023-05-14T03:32:56;100176.31;;;14.98;59.57
18527;BME280;9393;42.158;24.748;2023-05-14T03:36:00;100172.50;;;14.67;60.51
18527;BME280;9393;42.158;24.748;2023-05-14T03:39:04;100180.84;;;14.88;60.20
18527;BME280;9393;42.158;24.748;2023-05-14T03:42:11;100180.03;;;14.88;60.64
18527;BME280;9393;42.158;24.748;2023-05-14T03:45:14;100198.13;;;14.73;60.97
18527;BME280;9393;42.158;24.748;2023-05-14T03:48:18;100198.84;;;14.57;61.32
18527;BME280;9393;42.158;24.748;2023-05-14T03:51:22;100199.41;;;14.69;61.37
18527;BME280;9393;42.158;24.748;2023-05-14T03:54:26;100198.22;;;14.46;62.37
18527;BME280;9393;42.158;24.748;2023-05-14T03:57:31;100194.19;;;14.95;61.15
18527;BME280;9393;42.158;24.748;2023-05-14T04:00:36;100185.03;;;14.99;60.80
18527;BME280;9393;42.158;24.748;2023-05-14T04:03:40;100184.47;;;15.13;60.23
18527;BME280;9393;42.158;24.748;2023-05-14T04:06:44;100190.59;;;15.22;60.03
18527;BME280;9393;42.158;24.748;2023-05-14T04:09:48;100195.22;;;15.28;59.82
18527;BME280;9393;42.158;24.748;2023-05-14T04:12:54;100192.63;;;15.36;59.52
18527;BME280;9393;42.158;24.748;2023-05-14T04:16:04;100184.84;;;14.92;60.72
18527;BME280;9393;42.158;24.748;2023-05-14T04:19:09;100185.84;;;14.56;62.24
18527;BME280;9393;42.158;24.748;2023-05-14T04:22:13;100197.44;;;14.89;61.64
18527;BME280;9393;42.158;24.748;2023-05-14T04:25:17;100196.66;;;14.96;61.43
18527;BME280;9393;42.158;24.748;2023-05-14T04:28:22;100187.69;;;15.07;61.22
18527;BME280;9393;42.158;24.748;2023-05-14T04:31:26;100177.16;;;14.99;61.85
18527;BME280;9393;42.158;24.748;2023-05-14T04:34:30;100183.06;;;15.27;61.17
18527;BME280;9393;42.158;24.748;2023-05-14T04:37:33;100193.16;;;15.13;61.73
18527;BME280;9393;42.158;24.748;2023-05-14T04:40:37;100188.78;;;15.22;61.52
18527;BME280;9393;42.158;24.748;2023-05-14T04:43:42;100199.34;;;15.04;61.99
18527;BME280;9393;42.158;24.748;2023-05-14T04:46:47;100220.19;;;15.24;61.71
18527;BME280;9393;42.158;24.748;2023-05-14T04:49:51;100226.59;;;15.29;61.56
18527;BME280;9393;42.158;24.748;2023-05-14T04:52:54;100228.47;;;15.37;61.93
18527;BME280;9393;42.158;24.748;2023-05-14T04:55:58;100217.47;;;15.41;62.16
18527;BME280;9393;42.158;24.748;2023-05-14T04:59:03;100207.84;;;15.50;61.77
18527;BME280;9393;42.158;24.748;2023-05-14T05:02:07;100204.97;;;15.61;61.78
18527;BME280;9393;42.158;24.748;2023-05-14T05:05:11;100191.03;;;15.69;61.78
18527;BME280;9393;42.158;24.748;2023-05-14T05:08:15;100207.38;;;15.88;62.45
18527;BME280;9393;42.158;24.748;2023-05-14T05:11:19;100211.56;;;15.65;62.62
18527;BME280;9393;42.158;24.748;2023-05-14T05:14:25;100214.88;;;15.83;62.17
18527;BME280;9393;42.158;24.748;2023-05-14T05:17:29;100210.81;;;15.89;61.83
18527;BME280;9393;42.158;24.748;2023-05-14T05:20:32;100198.50;;;15.89;62.20
18527;BME280;9393;42.158;24.748;2023-05-14T05:23:36;100205.75;;;16.03;61.40
18527;BME280;9393;42.158;24.748;2023-05-14T05:26:40;100213.44;;;15.97;61.96
18527;BME280;9393;42.158;24.748;2023-05-14T05:29:46;100229.22;;;15.89;62.16
18527;BME280;9393;42.158;24.748;2023-05-14T05:32:50;100229.94;;;16.07;61.85
18527;BME280;9393;42.158;24.748;2023-05-14T05:35:54;100224.56;;;16.25;61.62
18527;BME280;9393;42.158;24.748;2023-05-14T05:38:58;100232.28;;;16.34;60.88
18527;BME280;9393;42.158;24.748;2023-05-14T05:42:02;100241.69;;;16.37;60.87
18527;BME280;9393;42.158;24.748;2023-05-14T05:45:09;100248.66;;;16.04;61.90
18527;BME280;9393;42.158;24.748;2023-05-14T05:48:13;100242.66;;;16.20;61.59
18527;BME280;9393;42.158;24.748;2023-05-14T05:51:17;100236.38;;;16.12;61.10
18527;BME280;9393;42.158;24.748;2023-05-14T05:54:21;100239.72;;;16.31;60.82
18527;BME280;9393;42.158;24.748;2023-05-14T05:57:26;100243.66;;;16.27;60.95
18527;BME280;9393;42.158;24.748;2023-05-14T06:00:31;100258.41;;;16.11;61.04
18527;BME280;9393;42.158;24.748;2023-05-14T06:03:35;100272.84;;;15.99;60.91
18527;BME280;9393;42.158;24.748;2023-05-14T06:06:39;100273.97;;;15.97;61.23
18527;BME280;9393;42.158;24.748;2023-05-14T06:09:43;100286.66;;;16.01;61.62
18527;BME280;9393;42.158;24.748;2023-05-14T06:12:47;100280.31;;;15.86;61.19
18527;BME280;9393;42.158;24.748;2023-05-14T06:15:52;100277.75;;;15.94;60.72
18527;BME280;9393;42.158;24.748;2023-05-14T06:18:56;100283.94;;;16.19;60.75
18527;BME280;9393;42.158;24.748;2023-05-14T06:22:00;100293.00;;;16.33;59.47
18527;BME280;9393;42.158;24.748;2023-05-14T06:25:05;100295.66;;;16.33;59.66
18527;BME280;9393;42.158;24.748;2023-05-14T06:28:09;100304.78;;;16.62;58.69
18527;BME280;9393;42.158;24.748;2023-05-14T06:31:15;100313.53;;;16.63;59.39
18527;BME280;9393;42.158;24.748;2023-05-14T06:34:19;100304.63;;;16.72;59.08
18527;BME280;9393;42.158;24.748;2023-05-14T06:37:23;100325.63;;;16.40;60.88
18527;BME280;9393;42.158;24.748;2023-05-14T06:40:26;100336.06;;;16.57;59.32
18527;BME280;9393;42.158;24.748;2023-05-14T06:43:30;100337.03;;;16.56;59.97
18527;BME280;9393;42.158;24.748;2023-05-14T06:46:36;100355.38;;;16.74;61.03
18527;BME280;9393;42.158;24.748;2023-05-14T06:49:39;100358.97;;;16.65;61.50
18527;BME280;9393;42.158;24.748;2023-05-14T06:52:43;100367.59;;;16.49;65.11
18527;BME280;9393;42.158;24.748;2023-05-14T06:55:48;100362.19;;;16.51;64.68
18527;BME280;9393;42.158;24.748;2023-05-14T06:58:52;100355.31;;;16.66;64.72
18527;BME280;9393;42.158;24.748;2023-05-14T07:01:57;100367.97;;;16.54;67.57
18527;BME280;9393;42.158;24.748;2023-05-14T07:05:01;100366.53;;;16.76;67.34
18527;BME280;9393;42.158;24.748;2023-05-14T07:08:05;100367.03;;;16.63;68.12
18527;BME280;9393;42.158;24.748;2023-05-14T07:11:09;100363.94;;;16.84;65.67
18527;BME280;9393;42.158;24.748;2023-05-14T07:14:14;100342.19;;;16.74;66.76
18527;BME280;9393;42.158;24.748;2023-05-14T07:17:20;100338.22;;;16.20;70.46
18527;BME280;9393;42.158;24.748;2023-05-14T07:20:24;100334.66;;;16.37;69.99
18527;BME280;9393;42.158;24.748;2023-05-14T07:23:28;100336.47;;;16.45;68.97
18527;BME280;9393;42.158;24.748;2023-05-14T07:26:33;100336.78;;;16.42;70.77
18527;BME280;9393;42.158;24.748;2023-05-14T07:29:37;100331.81;;;16.23;71.09
18527;BME280;9393;42.158;24.748;2023-05-14T07:32:43;100321.69;;;16.52;70.28
18527;BME280;9393;42.158;24.748;2023-05-14T07:35:47;100304.34;;;16.25;72.35
18527;BME280;9393;42.158;24.748;2023-05-14T07:38:51;100303.59;;;16.07;73.50
18527;BME280;9393;42.158;24.748;2023-05-14T07:41:55;100308.78;;;16.25;72.33
18527;BME280;9393;42.158;24.748;2023-05-14T07:44:59;100321.78;;;16.26;72.49
18527;BME280;9393;42.158;24.748;2023-05-14T07:48:04;100337.13;;;16.39;73.83
18527;BME280;9393;42.158;24.748;2023-05-14T07:51:09;100337.09;;;16.31;75.09
18527;BME280;9393;42.158;24.748;2023-05-14T07:54:13;100344.94;;;16.56;73.43
18527;BME280;9393;42.158;24.748;2023-05-14T07:57:17;100341.66;;;16.21;75.26
18527;BME280;9393;42.158;24.748;2023-05-14T08:00:21;100335.53;;;16.12;74.86
18527;BME280;9393;42.158;24.748;2023-05-14T08:03:27;100316.06;;;15.97;76.06
18527;BME280;9393;42.158;24.748;2023-05-14T08:06:30;100314.25;;;15.63;76.95
18527;BME280;9393;42.158;24.748;2023-05-14T08:09:35;100324.97;;;15.70;76.05
18527;BME280;9393;42.158;24.748;2023-05-14T08:12:39;100327.28;;;15.73;74.45
18527;BME280;9393;42.158;24.748;2023-05-14T08:15:44;100330.63;;;16.17;73.81
18527;BME280;9393;42.158;24.748;2023-05-14T08:18:49;100342.59;;;16.11;74.98
18527;BME280;9393;42.158;24.748;2023-05-14T08:21:53;100354.19;;;15.93;75.71
18527;BME280;9393;42.158;24.748;2023-05-14T08:24:57;100371.63;;;16.28;73.09
18527;BME280;9393;42.158;24.748;2023-05-14T08:28:02;100381.13;;;16.21;76.30
18527;BME280;9393;42.158;24.748;2023-05-14T08:31:06;100389.25;;;16.01;77.25
18527;BME280;9393;42.158;24.748;2023-05-14T08:34:11;100409.16;;;16.30;74.07
18527;BME280;9393;42.158;24.748;2023-05-14T08:37:16;100417.16;;;16.20;76.39
18527;BME280;9393;42.158;24.748;2023-05-14T08:40:20;100405.34;;;15.73;78.86
18527;BME280;9393;42.158;24.748;2023-05-14T08:43:26;100397.00;;;15.77;77.85
18527;BME280;9393;42.158;24.748;2023-05-14T08:46:32;100407.09;;;15.90;78.30
18527;BME280;9393;42.158;24.748;2023-05-14T08:49:41;100400.34;;;15.61;79.06
18527;BME280;9393;42.158;24.748;2023-05-14T08:52:46;100408.44;;;15.94;79.16
18527;BME280;9393;42.158;24.748;2023-05-14T08:55:50;100407.69;;;16.01;79.75
18527;BME280;9393;42.158;24.748;2023-05-14T08:58:56;100404.16;;;15.67;81.08
18527;BME280;9393;42.158;24.748;2023-05-14T09:02:01;100376.44;;;15.55;82.21
18527;BME280;9393;42.158;24.748;2023-05-14T09:05:08;100373.69;;;15.56;80.76
18527;BME280;9393;42.158;24.748;2023-05-14T09:08:12;100374.41;;;15.66;79.84
18527;BME280;9393;42.158;24.748;2023-05-14T09:11:16;100370.75;;;15.59;81.67
18527;BME280;9393;42.158;24.748;2023-05-14T09:14:21;100380.66;;;15.91;79.45
18527;BME280;9393;42.158;24.748;2023-05-14T09:17:25;100379.00;;;15.90;80.48
18527;BME280;9393;42.158;24.748;2023-05-14T09:20:31;100376.09;;;15.76;77.31
18527;BME280;9393;42.158;24.748;2023-05-14T09:23:40;100378.47;;;15.87;77.68
18527;BME280;9393;42.158;24.748;2023-05-14T09:26:49;100376.19;;;16.17;75.66
18527;BME280;9393;42.158;24.748;2023-05-14T09:29:53;100369.56;;;16.13;77.69
18527;BME280;9393;42.158;24.748;2023-05-14T09:32:57;100365.91;;;15.98;77.49
18527;BME280;9393;42.158;24.748;2023-05-14T09:36:03;100372.69;;;16.09;77.21
18527;BME280;9393;42.158;24.748;2023-05-14T09:39:07;100365.00;;;16.15;76.46
18527;BME280;9393;42.158;24.748;2023-05-14T09:42:11;100366.28;;;16.11;75.82
18527;BME280;9393;42.158;24.748;2023-05-14T09:45:15;100359.66;;;15.74;77.29
18527;BME280;9393;42.158;24.748;2023-05-14T09:48:19;100338.94;;;15.71;78.04
18527;BME280;9393;42.158;24.748;2023-05-14T09:51:28;100321.09;;;15.82;77.73
18527;BME280;9393;42.158;24.748;2023-05-14T09:54:34;100316.81;;;15.81;76.75
18527;BME280;9393;42.158;24.748;2023-05-14T09:57:38;100321.22;;;16.06;77.34
18527;BME280;9393;42.158;24.748;2023-05-14T10:00:44;100319.47;;;16.31;76.56
18527;BME280;9393;42.158;24.748;2023-05-14T10:03:48;100318.28;;;16.59;76.52
18527;BME280;9393;42.158;24.748;2023-05-14T10:06:54;100313.09;;;16.42;76.78
18527;BME280;9393;42.158;24.748;2023-05-14T10:10:01;100319.47;;;16.31;76.60
18527;BME280;9393;42.158;24.748;2023-05-14T10:13:09;100327.91;;;16.01;80.46
18527;BME280;9393;42.158;24.748;2023-05-14T10:16:18;100319.88;;;16.02;80.17
18527;BME280;9393;42.158;24.748;2023-05-14T10:19:25;100321.94;;;16.25;78.28
18527;BME280;9393;42.158;24.748;2023-05-14T10:22:33;100323.31;;;16.37;77.91
18527;BME280;9393;42.158;24.748;2023-05-14T10:25:38;100325.84;;;16.12;79.44
18527;BME280;9393;42.158;24.748;2023-05-14T10:28:43;100321.63;;;15.86;81.91
18527;BME280;9393;42.158;24.748;2023-05-14T10:31:49;100328.25;;;16.40;78.84
18527;BME280;9393;42.158;24.748;2023-05-14T10:34:55;100321.59;;;16.61;78.04
18527;BME280;9393;42.158;24.748;2023-05-14T10:38:00;100306.53;;;16.46;78.74
18527;BME280;9393;42.158;24.748;2023-05-14T10:41:05;100306.41;;;16.55;78.40
18527;BME280;9393;42.158;24.748;2023-05-14T10:44:10;100309.34;;;16.52;77.62
18527;BME280;9393;42.158;24.748;2023-05-14T10:47:15;100291.31;;;16.57;78.02
18527;BME280;9393;42.158;24.748;2023-05-14T10:50:19;100273.53;;;16.76;76.71
18527;BME280;9393;42.158;24.748;2023-05-14T10:53:35;100280.28;;;16.70;75.98
18527;BME280;9393;42.158;24.748;2023-05-14T10:56:42;100274.19;;;16.94;76.34
18527;BME280;9393;42.158;24.748;2023-05-14T10:59:47;100264.97;;;16.98;77.24
18527;BME280;9393;42.158;24.748;2023-05-14T11:02:55;100273.53;;;17.08;76.09
18527;BME280;9393;42.158;24.748;2023-05-14T11:06:02;100269.09;;;16.84;76.97
18527;BME280;9393;42.158;24.748;2023-05-14T11:09:08;100277.66;;;16.70;76.81
18527;BME280;9393;42.158;24.748;2023-05-14T11:12:12;100271.09;;;16.82;76.07
18527;BME280;9393;42.158;24.748;2023-05-14T11:15:17;100258.69;;;17.31;75.92
18527;BME280;9393;42.158;24.748;2023-05-14T11:18:28;100255.47;;;17.76;74.39
18527;BME280;9393;42.158;24.748;2023-05-14T11:21:32;100246.25;;;17.72;76.25
18527;BME280;9393;42.158;24.748;2023-05-14T11:24:38;100241.53;;;17.98;75.40
18527;BME280;9393;42.158;24.748;2023-05-14T11:27:43;100254.97;;;18.20;72.85
18527;BME280;9393;42.158;24.748;2023-05-14T11:30:48;100252.25;;;17.97;72.87
18527;BME280;9393;42.158;24.748;2023-05-14T11:33:52;100235.03;;;17.70;74.10
18527;BME280;9393;42.158;24.748;2023-05-14T11:36:56;100226.88;;;17.33;75.70
18527;BME280;9393;42.158;24.748;2023-05-14T11:40:01;100249.81;;;17.08;76.03
18527;BME280;9393;42.158;24.748;2023-05-14T11:43:06;100268.44;;;17.23;76.55
18527;BME280;9393;42.158;24.748;2023-05-14T11:46:15;100264.16;;;17.05;77.43
18527;BME280;9393;42.158;24.748;2023-05-14T11:49:20;100258.19;;;17.28;78.62
18527;BME280;9393;42.158;24.748;2023-05-14T11:52:25;100242.50;;;17.42;77.35
18527;BME280;9393;42.158;24.748;2023-05-14T11:55:33;100255.31;;;17.70;74.64
18527;BME280;9393;42.158;24.748;2023-05-14T11:58:37;100258.94;;;17.77;75.31
18527;BME280;9393;42.158;24.748;2023-05-14T12:01:41;100250.19;;;17.76;76.25
18527;BME280;9393;42.158;24.748;2023-05-14T12:04:49;100251.22;;;18.06;74.91
18527;BME280;9393;42.158;24.748;2023-05-14T12:07:54;100261.97;;;17.96;73.00
18527;BME280;9393;42.158;24.748;2023-05-14T12:11:00;100260.75;;;17.76;75.79
18527;BME280;9393;42.158;24.748;2023-05-14T12:14:10;100252.28;;;17.34;76.41
18527;BME280;9393;42.158;24.748;2023-05-14T12:17:15;100239.59;;;17.29;75.20
18527;BME280;9393;42.158;24.748;2023-05-14T12:20:21;100242.34;;;17.44;76.88
18527;BME280;9393;42.158;24.748;2023-05-14T12:23:28;100238.28;;;17.01;76.72
18527;BME280;9393;42.158;24.748;2023-05-14T12:26:34;100223.47;;;16.76;78.51
18527;BME280;9393;42.158;24.748;2023-05-14T12:29:42;100224.28;;;17.08;76.68
18527;BME280;9393;42.158;24.748;2023-05-14T12:32:46;100216.88;;;17.12;77.92
18527;BME280;9393;42.158;24.748;2023-05-14T12:35:53;100211.59;;;17.12;77.67
18527;BME280;9393;42.158;24.748;2023-05-14T12:39:11;100189.34;;;17.23;78.16
18527;BME280;9393;42.158;24.748;2023-05-14T12:42:16;100190.31;;;17.30;78.29
18527;BME280;9393;42.158;24.748;2023-05-14T12:45:20;100175.06;;;17.09;78.75
18527;BME280;9393;42.158;24.748;2023-05-14T12:48:25;100160.72;;;17.11;78.47
18527;BME280;9393;42.158;24.748;2023-05-14T12:51:29;100166.25;;;17.41;78.01
18527;BME280;9393;42.158;24.748;2023-05-14T12:54:33;100165.19;;;16.87;80.38
18527;BME280;9393;42.158;24.748;2023-05-14T12:57:38;100173.44;;;16.84;80.38
18527;BME280;9393;42.158;24.748;2023-05-14T13:00:42;100173.78;;;16.73;81.54
18527;BME280;9393;42.158;24.748;2023-05-14T13:03:46;100161.88;;;16.93;80.66
18527;BME280;9393;42.158;24.748;2023-05-14T13:06:50;100170.47;;;16.87;80.53
18527;BME280;9393;42.158;24.748;2023-05-14T13:09:54;100163.56;;;16.53;82.09
18527;BME280;9393;42.158;24.748;2023-05-14T13:13:00;100156.44;;;16.13;83.09
18527;BME280;9393;42.158;24.748;2023-05-14T13:16:05;100148.19;;;16.00;84.69
18527;BME280;9393;42.158;24.748;2023-05-14T13:19:09;100158.09;;;16.23;84.16
18527;BME280;9393;42.158;24.748;2023-05-14T13:22:13;100148.75;;;16.20;83.91
18527;BME280;9393;42.158;24.748;2023-05-14T13:25:18;100137.38;;;16.36;83.67
18527;BME280;9393;42.158;24.748;2023-05-14T13:28:24;100125.84;;;16.04;86.22
18527;BME280;9393;42.158;24.748;2023-05-14T13:31:28;100130.38;;;15.70;89.46
18527;BME280;9393;42.158;24.748;2023-05-14T13:34:32;100126.31;;;16.00;87.86
18527;BME280;9393;42.158;24.748;2023-05-14T13:37:36;100126.34;;;16.24;86.01
18527;BME280;9393;42.158;24.748;2023-05-14T13:40:40;100143.28;;;16.22;84.47
18527;BME280;9393;42.158;24.748;2023-05-14T13:43:45;100135.56;;;16.36;84.51
18527;BME280;9393;42.158;24.748;2023-05-14T13:46:49;100133.47;;;16.56;84.47
18527;BME280;9393;42.158;24.748;2023-05-14T13:49:53;100136.59;;;16.67;83.65
18527;BME280;9393;42.158;24.748;2023-05-14T13:52:57;100133.78;;;16.69;82.69
18527;BME280;9393;42.158;24.748;2023-05-14T13:56:01;100130.50;;;16.67;82.81
18527;BME280;9393;42.158;24.748;2023-05-14T13:59:09;100119.47;;;16.63;83.66
18527;BME280;9393;42.158;24.748;2023-05-14T14:02:13;100121.25;;;16.55;84.28
18527;BME280;9393;42.158;24.748;2023-05-14T14:05:18;100122.41;;;16.52;84.36
18527;BME280;9393;42.158;24.748;2023-05-14T14:08:22;100130.00;;;16.63;83.40
18527;BME280;9393;42.158;24.748;2023-05-14T14:11:26;100124.53;;;16.49;84.41
18527;BME280;9393;42.158;24.748;2023-05-14T14:14:31;100119.78;;;16.44;84.21
18527;BME280;9393;42.158;24.748;2023-05-14T14:17:36;100121.44;;;16.29;84.76
18527;BME280;9393;42.158;24.748;2023-05-14T14:20:40;100116.50;;;16.66;82.44
18527;BME280;9393;42.158;24.748;2023-05-14T14:23:44;100115.03;;;16.48;83.97
18527;BME280;9393;42.158;24.748;2023-05-14T14:26:48;100109.75;;;16.40;84.27
18527;BME280;9393;42.158;24.748;2023-05-14T14:29:54;100105.13;;;16.50;84.05
18527;BME280;9393;42.158;24.748;2023-05-14T14:32:58;100094.28;;;16.37;85.66
18527;BME280;9393;42.158;24.748;2023-05-14T14:36:03;100086.72;;;16.58;84.23
18527;BME280;9393;42.158;24.748;2023-05-14T14:39:07;100084.56;;;16.53;85.40
18527;BME280;9393;42.158;24.748;2023-05-14T14:42:10;100084.06;;;16.74;82.48
18527;BME280;9393;42.158;24.748;2023-05-14T14:45:16;100076.78;;;16.84;81.99
18527;BME280;9393;42.158;24.748;2023-05-14T14:48:27;100076.47;;;16.79;82.70
18527;BME280;9393;42.158;24.748;2023-05-14T14:51:32;100068.06;;;16.76;82.94
18527;BME280;9393;42.158;24.748;2023-05-14T14:54:36;100068.88;;;16.84;82.26
18527;BME280;9393;42.158;24.748;2023-05-14T14:57:40;100058.00;;;16.87;82.76
18527;BME280;9393;42.158;24.748;2023-05-14T15:00:46;100054.59;;;16.71;83.60
18527;BME280;9393;42.158;24.748;2023-05-14T15:03:50;100049.16;;;16.72;83.58
18527;BME280;9393;42.158;24.748;2023-05-14T15:06:54;100043.19;;;16.86;82.62
18527;BME280;9393;42.158;24.748;2023-05-14T15:09:58;100038.47;;;16.65;84.83
18527;BME280;9393;42.158;24.748;2023-05-14T15:13:02;100039.56;;;16.87;83.29
18527;BME280;9393;42.158;24.748;2023-05-14T15:16:08;100037.25;;;16.92;82.78
18527;BME280;9393;42.158;24.748;2023-05-14T15:19:12;100032.69;;;16.78;83.90
18527;BME280;9393;42.158;24.748;2023-05-14T15:22:16;100033.31;;;16.88;82.76
18527;BME280;9393;42.158;24.748;2023-05-14T15:25:21;100041.03;;;16.90;82.71
18527;BME280;9393;42.158;24.748;2023-05-14T15:28:26;100034.63;;;16.92;82.79
18527;BME280;9393;42.158;24.748;2023-05-14T15:31:31;100040.84;;;16.99;83.30
18527;BME280;9393;42.158;24.748;2023-05-14T15:34:35;100042.31;;;17.02;83.86
18527;BME280;9393;42.158;24.748;2023-05-14T15:37:41;100056.84;;;16.90;85.05
18527;BME280;9393;42.158;24.748;2023-05-14T15:40:45;100053.97;;;16.60;88.50
18527;BME280;9393;42.158;24.748;2023-05-14T15:43:50;100040.13;;;16.66;87.69
18527;BME280;9393;42.158;24.748;2023-05-14T15:46:55;100047.38;;;16.48;88.02
18527;BME280;9393;42.158;24.748;2023-05-14T15:49:59;100045.88;;;16.54;86.96
18527;BME280;9393;42.158;24.748;2023-05-14T15:53:03;100043.59;;;16.51;87.55
18527;BME280;9393;42.158;24.748;2023-05-14T15:56:07;100038.00;;;16.54;87.29
18527;BME280;9393;42.158;24.748;2023-05-14T15:59:11;100029.63;;;16.34;89.15
18527;BME280;9393;42.158;24.748;2023-05-14T16:02:19;100037.50;;;16.42;88.94
18527;BME280;9393;42.158;24.748;2023-05-14T16:05:23;100041.47;;;16.38;89.89